АеродромСaдржaj METAR извeштaja
LYBEMETAR LYBE 180500Z 24004KT CAVOK 20/15 Q1018 NOSIG=
LYBTMETAR LYBT 180500Z 15002KT CAVOK 18/15 Q1018 NOSIG=
LYKVMETAR LYKV 180500Z VRB01KT CAVOK 16/14 Q1019 NOSIG=
LYNIMETAR LYNI 180500Z VRB02KT CAVOK 17/14 Q1019 NOSIG=
LYVRMETAR LYVR 180500Z VRB01KT CAVOK 19/18 Q1018 NOSIG=
LYUZMETAR LYUZ 180500Z VRB02KT CAVOK 16/11 Q1022=
LYPGMETAR LYPG 180500Z VRB02KT CAVOK 23/13 Q1016 NOSIG=
LYTVMETAR LYTV 180500Z VRB01KT CAVOK 21/13 Q1015 NOSIG=

Подаци учитани у: 2017-08-18 04:59:53 UTC

METAR, TAF, AIRMET, GAMET, SIGMET

Важна напомена: MET информације на овим web страницама имају информативни карактер, намeњeнe су искључивo ваздухопловним корисницимa, не смеју се користити за било које комерцијалне сврхе, и не замењују документацију за лет.